sensor_id;sensor_type;location;lat;lon;timestamp;P1;durP1;ratioP1;P2;durP2;ratioP2
30850;SDS011;17567;48.382;9.102;2022-07-23T00:04:30;9.15;;;8.32;;
30850;SDS011;17567;48.382;9.102;2022-07-23T00:09:32;9.45;;;8.45;;
30850;SDS011;17567;48.382;9.102;2022-07-23T00:14:33;8.82;;;7.68;;
30850;SDS011;17567;48.382;9.102;2022-07-23T00:19:34;10.82;;;8.60;;
30850;SDS011;17567;48.382;9.102;2022-07-23T00:24:35;11.20;;;7.90;;
30850;SDS011;17567;48.382;9.102;2022-07-23T00:29:36;9.38;;;8.00;;
30850;SDS011;17567;48.382;9.102;2022-07-23T00:34:37;10.32;;;8.30;;
30850;SDS011;17567;48.382;9.102;2022-07-23T00:39:37;8.55;;;7.75;;
30850;SDS011;17567;48.382;9.102;2022-07-23T00:44:39;9.02;;;7.47;;
30850;SDS011;17567;48.382;9.102;2022-07-23T00:49:39;8.32;;;7.53;;
30850;SDS011;17567;48.382;9.102;2022-07-23T00:54:40;8.55;;;7.57;;
30850;SDS011;17567;48.382;9.102;2022-07-23T00:59:41;9.23;;;7.47;;
30850;SDS011;17567;48.382;9.102;2022-07-23T01:04:42;7.82;;;7.10;;
30850;SDS011;17567;48.382;9.102;2022-07-23T01:09:43;9.23;;;8.23;;
30850;SDS011;17567;48.382;9.102;2022-07-23T01:14:53;12.73;;;8.02;;
30850;SDS011;17567;48.382;9.102;2022-07-23T01:19:58;9.77;;;7.53;;
30850;SDS011;17567;48.382;9.102;2022-07-23T01:24:58;9.38;;;7.90;;
30850;SDS011;17567;48.382;9.102;2022-07-23T01:30:00;8.07;;;7.28;;
30850;SDS011;17567;48.382;9.102;2022-07-23T01:35:01;8.00;;;7.30;;
30850;SDS011;17567;48.382;9.102;2022-07-23T01:40:02;8.07;;;7.40;;
30850;SDS011;17567;48.382;9.102;2022-07-23T01:45:04;7.72;;;7.05;;
30850;SDS011;17567;48.382;9.102;2022-07-23T01:50:06;7.73;;;7.13;;
30850;SDS011;17567;48.382;9.102;2022-07-23T01:55:07;9.38;;;7.53;;
30850;SDS011;17567;48.382;9.102;2022-07-23T02:00:08;8.45;;;7.65;;
30850;SDS011;17567;48.382;9.102;2022-07-23T02:05:09;10.40;;;7.17;;
30850;SDS011;17567;48.382;9.102;2022-07-23T02:10:11;7.27;;;6.67;;
30850;SDS011;17567;48.382;9.102;2022-07-23T02:15:12;6.50;;;6.00;;
30850;SDS011;17567;48.382;9.102;2022-07-23T02:20:12;7.77;;;7.03;;
30850;SDS011;17567;48.382;9.102;2022-07-23T02:25:14;9.90;;;7.23;;
30850;SDS011;17567;48.382;9.102;2022-07-23T02:30:15;6.60;;;6.10;;
30850;SDS011;17567;48.382;9.102;2022-07-23T02:35:16;7.43;;;6.70;;
30850;SDS011;17567;48.382;9.102;2022-07-23T02:40:17;7.25;;;6.13;;
30850;SDS011;17567;48.382;9.102;2022-07-23T02:45:18;7.07;;;6.23;;
30850;SDS011;17567;48.382;9.102;2022-07-23T02:50:19;7.07;;;6.50;;
30850;SDS011;17567;48.382;9.102;2022-07-23T02:55:20;7.80;;;6.60;;
30850;SDS011;17567;48.382;9.102;2022-07-23T03:00:21;6.93;;;5.90;;
30850;SDS011;17567;48.382;9.102;2022-07-23T03:05:22;7.30;;;6.70;;
30850;SDS011;17567;48.382;9.102;2022-07-23T03:10:22;8.80;;;7.60;;
30850;SDS011;17567;48.382;9.102;2022-07-23T03:15:23;8.13;;;7.10;;
30850;SDS011;17567;48.382;9.102;2022-07-23T03:20:24;8.23;;;7.53;;
30850;SDS011;17567;48.382;9.102;2022-07-23T03:25:24;7.95;;;7.05;;
30850;SDS011;17567;48.382;9.102;2022-07-23T03:30:25;8.83;;;7.93;;
30850;SDS011;17567;48.382;9.102;2022-07-23T03:35:26;7.72;;;6.50;;
30850;SDS011;17567;48.382;9.102;2022-07-23T03:40:27;8.20;;;7.40;;
30850;SDS011;17567;48.382;9.102;2022-07-23T03:45:27;8.07;;;7.28;;
30850;SDS011;17567;48.382;9.102;2022-07-23T03:50:28;7.80;;;7.10;;
30850;SDS011;17567;48.382;9.102;2022-07-23T03:55:29;7.85;;;6.90;;
30850;SDS011;17567;48.382;9.102;2022-07-23T04:00:30;9.23;;;7.90;;
30850;SDS011;17567;48.382;9.102;2022-07-23T04:05:30;9.93;;;8.20;;
30850;SDS011;17567;48.382;9.102;2022-07-23T04:10:32;8.43;;;6.87;;
30850;SDS011;17567;48.382;9.102;2022-07-23T04:15:33;10.10;;;8.10;;
30850;SDS011;17567;48.382;9.102;2022-07-23T04:20:34;8.40;;;7.60;;
30850;SDS011;17567;48.382;9.102;2022-07-23T04:25:35;9.57;;;7.90;;
30850;SDS011;17567;48.382;9.102;2022-07-23T04:30:36;8.23;;;7.20;;
30850;SDS011;17567;48.382;9.102;2022-07-23T04:35:37;8.87;;;7.97;;
30850;SDS011;17567;48.382;9.102;2022-07-23T04:40:38;10.73;;;7.00;;
30850;SDS011;17567;48.382;9.102;2022-07-23T04:45:40;9.93;;;7.70;;
30850;SDS011;17567;48.382;9.102;2022-07-23T04:50:41;8.57;;;7.73;;
30850;SDS011;17567;48.382;9.102;2022-07-23T04:55:43;9.33;;;7.47;;
30850;SDS011;17567;48.382;9.102;2022-07-23T05:00:44;8.07;;;7.37;;
30850;SDS011;17567;48.382;9.102;2022-07-23T05:05:45;11.60;;;8.27;;
30850;SDS011;17567;48.382;9.102;2022-07-23T05:10:46;10.03;;;8.10;;
30850;SDS011;17567;48.382;9.102;2022-07-23T05:15:47;8.30;;;7.33;;
30850;SDS011;17567;48.382;9.102;2022-07-23T05:20:48;8.63;;;7.37;;
30850;SDS011;17567;48.382;9.102;2022-07-23T05:25:49;8.20;;;7.50;;
30850;SDS011;17567;48.382;9.102;2022-07-23T05:30:50;8.57;;;7.13;;
30850;SDS011;17567;48.382;9.102;2022-07-23T05:35:51;7.97;;;7.10;;
30850;SDS011;17567;48.382;9.102;2022-07-23T05:40:52;9.70;;;8.63;;
30850;SDS011;17567;48.382;9.102;2022-07-23T05:45:53;8.90;;;8.00;;
30850;SDS011;17567;48.382;9.102;2022-07-23T05:50:55;8.93;;;8.13;;
30850;SDS011;17567;48.382;9.102;2022-07-23T05:55:56;10.30;;;8.23;;
30850;SDS011;17567;48.382;9.102;2022-07-23T06:00:56;7.63;;;6.90;;
30850;SDS011;17567;48.382;9.102;2022-07-23T06:05:57;8.70;;;7.97;;
30850;SDS011;17567;48.382;9.102;2022-07-23T06:10:58;8.13;;;7.40;;
30850;SDS011;17567;48.382;9.102;2022-07-23T06:15:58;7.27;;;6.53;;
30850;SDS011;17567;48.382;9.102;2022-07-23T06:20:59;8.53;;;7.57;;
30850;SDS011;17567;48.382;9.102;2022-07-23T06:26:00;8.30;;;6.53;;
30850;SDS011;17567;48.382;9.102;2022-07-23T06:31:01;9.38;;;6.82;;
30850;SDS011;17567;48.382;9.102;2022-07-23T06:36:01;8.52;;;6.93;;
30850;SDS011;17567;48.382;9.102;2022-07-23T06:41:02;7.03;;;6.43;;
30850;SDS011;17567;48.382;9.102;2022-07-23T06:46:06;9.30;;;6.88;;
30850;SDS011;17567;48.382;9.102;2022-07-23T06:51:09;7.65;;;6.95;;
30850;SDS011;17567;48.382;9.102;2022-07-23T06:56:09;9.68;;;8.20;;
30850;SDS011;17567;48.382;9.102;2022-07-23T07:01:10;7.57;;;6.97;;
30850;SDS011;17567;48.382;9.102;2022-07-23T07:06:11;9.80;;;7.68;;
30850;SDS011;17567;48.382;9.102;2022-07-23T07:11:12;7.50;;;6.78;;
30850;SDS011;17567;48.382;9.102;2022-07-23T07:16:13;7.13;;;6.38;;
30850;SDS011;17567;48.382;9.102;2022-07-23T07:21:13;7.65;;;6.95;;
30850;SDS011;17567;48.382;9.102;2022-07-23T07:26:14;7.93;;;7.05;;
30850;SDS011;17567;48.382;9.102;2022-07-23T07:31:15;8.25;;;7.47;;
30850;SDS011;17567;48.382;9.102;2022-07-23T07:36:16;8.85;;;7.53;;
30850;SDS011;17567;48.382;9.102;2022-07-23T07:41:17;7.20;;;6.60;;
30850;SDS011;17567;48.382;9.102;2022-07-23T07:46:24;10.18;;;7.50;;
30850;SDS011;17567;48.382;9.102;2022-07-23T07:51:27;7.70;;;7.03;;
30850;SDS011;17567;48.382;9.102;2022-07-23T07:56:28;7.40;;;6.70;;
30850;SDS011;17567;48.382;9.102;2022-07-23T08:01:29;8.27;;;7.38;;
30850;SDS011;17567;48.382;9.102;2022-07-23T08:06:30;7.60;;;6.78;;
30850;SDS011;17567;48.382;9.102;2022-07-23T08:11:30;8.23;;;6.80;;
30850;SDS011;17567;48.382;9.102;2022-07-23T08:16:31;6.82;;;6.03;;
30850;SDS011;17567;48.382;9.102;2022-07-23T08:21:32;6.88;;;6.22;;
30850;SDS011;17567;48.382;9.102;2022-07-23T08:26:32;7.13;;;6.43;;
30850;SDS011;17567;48.382;9.102;2022-07-23T08:31:34;7.57;;;6.93;;
30850;SDS011;17567;48.382;9.102;2022-07-23T08:36:35;6.82;;;6.20;;
30850;SDS011;17567;48.382;9.102;2022-07-23T08:41:37;7.13;;;6.53;;
30850;SDS011;17567;48.382;9.102;2022-07-23T08:46:40;8.35;;;6.88;;
30850;SDS011;17567;48.382;9.102;2022-07-23T08:51:41;7.63;;;6.97;;
30850;SDS011;17567;48.382;9.102;2022-07-23T08:56:42;7.53;;;6.82;;
30850;SDS011;17567;48.382;9.102;2022-07-23T09:01:43;7.63;;;6.82;;
30850;SDS011;17567;48.382;9.102;2022-07-23T09:06:44;7.07;;;6.57;;
30850;SDS011;17567;48.382;9.102;2022-07-23T09:11:46;7.88;;;7.20;;
30850;SDS011;17567;48.382;9.102;2022-07-23T09:16:47;7.35;;;6.65;;
30850;SDS011;17567;48.382;9.102;2022-07-23T09:21:48;7.10;;;6.50;;
30850;SDS011;17567;48.382;9.102;2022-07-23T09:26:49;7.00;;;6.43;;
30850;SDS011;17567;48.382;9.102;2022-07-23T09:31:58;7.93;;;6.90;;
30850;SDS011;17567;48.382;9.102;2022-07-23T09:37:09;8.82;;;7.93;;
30850;SDS011;17567;48.382;9.102;2022-07-23T09:42:17;8.07;;;7.38;;
30850;SDS011;17567;48.382;9.102;2022-07-23T09:47:21;7.55;;;6.95;;
30850;SDS011;17567;48.382;9.102;2022-07-23T09:52:27;7.72;;;7.10;;
30850;SDS011;17567;48.382;9.102;2022-07-23T09:57:29;7.47;;;6.75;;
30850;SDS011;17567;48.382;9.102;2022-07-23T10:02:32;7.63;;;7.03;;
30850;SDS011;17567;48.382;9.102;2022-07-23T10:07:34;7.68;;;7.05;;
30850;SDS011;17567;48.382;9.102;2022-07-23T10:12:37;7.53;;;6.82;;
30850;SDS011;17567;48.382;9.102;2022-07-23T10:17:44;7.65;;;7.00;;
30850;SDS011;17567;48.382;9.102;2022-07-23T10:22:59;7.57;;;6.88;;
30850;SDS011;17567;48.382;9.102;2022-07-23T10:44:09;7.68;;;6.72;;
30850;SDS011;17567;48.382;9.102;2022-07-23T10:49:21;8.02;;;7.32;;
30850;SDS011;17567;48.382;9.102;2022-07-23T10:54:22;7.82;;;7.03;;
30850;SDS011;17567;48.382;9.102;2022-07-23T10:59:23;8.10;;;6.53;;
30850;SDS011;17567;48.382;9.102;2022-07-23T11:04:47;8.25;;;6.80;;
30850;SDS011;17567;48.382;9.102;2022-07-23T11:09:49;7.72;;;6.93;;
30850;SDS011;17567;48.382;9.102;2022-07-23T11:26:22;7.70;;;7.00;;
30850;SDS011;17567;48.382;9.102;2022-07-23T11:36:57;8.98;;;7.40;;
30850;SDS011;17567;48.382;9.102;2022-07-23T11:42:03;7.75;;;7.07;;
30850;SDS011;17567;48.382;9.102;2022-07-23T11:47:09;7.43;;;6.82;;
30850;SDS011;17567;48.382;9.102;2022-07-23T11:52:14;8.05;;;7.45;;
30850;SDS011;17567;48.382;9.102;2022-07-23T11:57:18;7.10;;;6.40;;
30850;SDS011;17567;48.382;9.102;2022-07-23T12:02:21;8.27;;;7.30;;
30850;SDS011;17567;48.382;9.102;2022-07-23T12:07:32;7.82;;;7.22;;
30850;SDS011;17567;48.382;9.102;2022-07-23T12:12:39;8.65;;;6.93;;
30850;SDS011;17567;48.382;9.102;2022-07-23T12:17:51;8.93;;;7.20;;
30850;SDS011;17567;48.382;9.102;2022-07-23T12:22:58;8.77;;;7.38;;
30850;SDS011;17567;48.382;9.102;2022-07-23T12:33:09;9.27;;;7.65;;
30850;SDS011;17567;48.382;9.102;2022-07-23T12:38:15;7.60;;;6.78;;
30850;SDS011;17567;48.382;9.102;2022-07-23T12:48:28;7.32;;;6.70;;
30850;SDS011;17567;48.382;9.102;2022-07-23T12:53:40;8.25;;;7.43;;
30850;SDS011;17567;48.382;9.102;2022-07-23T13:08:57;7.40;;;6.70;;
30850;SDS011;17567;48.382;9.102;2022-07-23T13:13:59;9.07;;;7.15;;
30850;SDS011;17567;48.382;9.102;2022-07-23T13:19:00;8.35;;;7.65;;
30850;SDS011;17567;48.382;9.102;2022-07-23T13:24:01;7.28;;;6.68;;
30850;SDS011;17567;48.382;9.102;2022-07-23T13:29:03;9.95;;;7.30;;
30850;SDS011;17567;48.382;9.102;2022-07-23T13:34:04;7.60;;;6.90;;
30850;SDS011;17567;48.382;9.102;2022-07-23T13:39:06;7.70;;;7.10;;
30850;SDS011;17567;48.382;9.102;2022-07-23T13:44:07;7.90;;;7.10;;
30850;SDS011;17567;48.382;9.102;2022-07-23T13:49:08;9.90;;;7.38;;
30850;SDS011;17567;48.382;9.102;2022-07-23T13:54:09;6.97;;;6.40;;
30850;SDS011;17567;48.382;9.102;2022-07-23T13:59:11;8.00;;;7.25;;
30850;SDS011;17567;48.382;9.102;2022-07-23T14:04:12;6.60;;;6.10;;
30850;SDS011;17567;48.382;9.102;2022-07-23T14:09:13;10.00;;;6.90;;
30850;SDS011;17567;48.382;9.102;2022-07-23T14:14:14;6.72;;;6.22;;
30850;SDS011;17567;48.382;9.102;2022-07-23T14:19:15;7.68;;;6.55;;
30850;SDS011;17567;48.382;9.102;2022-07-23T14:24:17;7.65;;;7.00;;
30850;SDS011;17567;48.382;9.102;2022-07-23T14:29:19;6.65;;;6.15;;
30850;SDS011;17567;48.382;9.102;2022-07-23T14:34:20;6.85;;;6.15;;
30850;SDS011;17567;48.382;9.102;2022-07-23T14:39:21;6.65;;;5.97;;
30850;SDS011;17567;48.382;9.102;2022-07-23T14:44:22;6.45;;;5.82;;
30850;SDS011;17567;48.382;9.102;2022-07-23T14:49:23;5.95;;;5.40;;
30850;SDS011;17567;48.382;9.102;2022-07-23T14:54:24;12.57;;;5.80;;
30850;SDS011;17567;48.382;9.102;2022-07-23T14:59:26;5.88;;;5.45;;
30850;SDS011;17567;48.382;9.102;2022-07-23T15:04:27;6.25;;;5.78;;
30850;SDS011;17567;48.382;9.102;2022-07-23T15:09:29;6.80;;;6.20;;
30850;SDS011;17567;48.382;9.102;2022-07-23T15:14:30;6.07;;;5.57;;
30850;SDS011;17567;48.382;9.102;2022-07-23T15:19:32;6.35;;;5.57;;
30850;SDS011;17567;48.382;9.102;2022-07-23T15:24:33;6.20;;;5.70;;
30850;SDS011;17567;48.382;9.102;2022-07-23T15:29:34;6.05;;;5.55;;
30850;SDS011;17567;48.382;9.102;2022-07-23T15:34:36;6.05;;;5.55;;
30850;SDS011;17567;48.382;9.102;2022-07-23T15:39:37;6.40;;;5.80;;
30850;SDS011;17567;48.382;9.102;2022-07-23T15:44:38;7.38;;;6.15;;
30850;SDS011;17567;48.382;9.102;2022-07-23T15:49:40;6.50;;;5.28;;
30850;SDS011;17567;48.382;9.102;2022-07-23T15:54:41;5.90;;;5.40;;
30850;SDS011;17567;48.382;9.102;2022-07-23T15:59:42;6.57;;;5.97;;
30850;SDS011;17567;48.382;9.102;2022-07-23T16:04:43;6.07;;;5.55;;
30850;SDS011;17567;48.382;9.102;2022-07-23T16:09:45;5.72;;;5.32;;
30850;SDS011;17567;48.382;9.102;2022-07-23T16:14:46;6.20;;;5.63;;
30850;SDS011;17567;48.382;9.102;2022-07-23T16:19:47;5.75;;;5.32;;
30850;SDS011;17567;48.382;9.102;2022-07-23T16:24:48;5.88;;;5.38;;
30850;SDS011;17567;48.382;9.102;2022-07-23T16:29:49;6.97;;;6.03;;
30850;SDS011;17567;48.382;9.102;2022-07-23T16:34:51;5.90;;;5.40;;
30850;SDS011;17567;48.382;9.102;2022-07-23T16:39:52;6.90;;;6.30;;
30850;SDS011;17567;48.382;9.102;2022-07-23T16:44:53;6.20;;;5.70;;
30850;SDS011;17567;48.382;9.102;2022-07-23T16:49:54;6.57;;;6.00;;
30850;SDS011;17567;48.382;9.102;2022-07-23T16:54:56;6.95;;;6.00;;
30850;SDS011;17567;48.382;9.102;2022-07-23T16:59:57;6.43;;;5.93;;
30850;SDS011;17567;48.382;9.102;2022-07-23T17:04:58;7.30;;;6.20;;
30850;SDS011;17567;48.382;9.102;2022-07-23T17:10:00;6.80;;;6.28;;
30850;SDS011;17567;48.382;9.102;2022-07-23T17:15:01;6.15;;;5.55;;
30850;SDS011;17567;48.382;9.102;2022-07-23T17:20:06;6.53;;;6.03;;
30850;SDS011;17567;48.382;9.102;2022-07-23T17:25:11;9.25;;;6.50;;
30850;SDS011;17567;48.382;9.102;2022-07-23T17:30:17;6.10;;;5.60;;
30850;SDS011;17567;48.382;9.102;2022-07-23T17:35:19;6.57;;;5.97;;
30850;SDS011;17567;48.382;9.102;2022-07-23T17:40:20;7.00;;;6.22;;
30850;SDS011;17567;48.382;9.102;2022-07-23T17:45:21;6.70;;;6.10;;
30850;SDS011;17567;48.382;9.102;2022-07-23T17:50:22;6.93;;;6.32;;
30850;SDS011;17567;48.382;9.102;2022-07-23T17:55:24;8.27;;;6.30;;
30850;SDS011;17567;48.382;9.102;2022-07-23T18:00:30;7.18;;;6.47;;
30850;SDS011;17567;48.382;9.102;2022-07-23T18:05:32;7.70;;;6.45;;
30850;SDS011;17567;48.382;9.102;2022-07-23T18:10:34;6.60;;;6.05;;
30850;SDS011;17567;48.382;9.102;2022-07-23T18:15:36;6.32;;;5.82;;
30850;SDS011;17567;48.382;9.102;2022-07-23T18:20:37;6.80;;;6.25;;
30850;SDS011;17567;48.382;9.102;2022-07-23T18:25:38;8.23;;;7.47;;
30850;SDS011;17567;48.382;9.102;2022-07-23T18:30:39;7.85;;;7.15;;
30850;SDS011;17567;48.382;9.102;2022-07-23T18:35:40;6.53;;;5.95;;
30850;SDS011;17567;48.382;9.102;2022-07-23T18:40:42;9.07;;;6.50;;
30850;SDS011;17567;48.382;9.102;2022-07-23T18:45:46;6.63;;;6.10;;
30850;SDS011;17567;48.382;9.102;2022-07-23T18:50:50;7.13;;;6.43;;
30850;SDS011;17567;48.382;9.102;2022-07-23T18:55:50;7.40;;;6.05;;
30850;SDS011;17567;48.382;9.102;2022-07-23T19:00:53;6.57;;;5.90;;
30850;SDS011;17567;48.382;9.102;2022-07-23T19:05:54;7.93;;;6.90;;
30850;SDS011;17567;48.382;9.102;2022-07-23T19:10:55;6.85;;;6.22;;
30850;SDS011;17567;48.382;9.102;2022-07-23T19:15:56;7.63;;;6.95;;
30850;SDS011;17567;48.382;9.102;2022-07-23T19:21:00;7.38;;;6.72;;
30850;SDS011;17567;48.382;9.102;2022-07-23T19:26:02;7.53;;;6.68;;
30850;SDS011;17567;48.382;9.102;2022-07-23T19:31:04;8.40;;;7.45;;
30850;SDS011;17567;48.382;9.102;2022-07-23T19:36:11;7.00;;;6.40;;
30850;SDS011;17567;48.382;9.102;2022-07-23T19:41:12;9.07;;;8.27;;
30850;SDS011;17567;48.382;9.102;2022-07-23T19:46:13;9.75;;;7.82;;
30850;SDS011;17567;48.382;9.102;2022-07-23T19:51:14;8.98;;;7.28;;
30850;SDS011;17567;48.382;9.102;2022-07-23T19:56:15;8.13;;;7.18;;
30850;SDS011;17567;48.382;9.102;2022-07-23T20:01:20;8.63;;;7.47;;
30850;SDS011;17567;48.382;9.102;2022-07-23T20:06:21;15.02;;;10.50;;
30850;SDS011;17567;48.382;9.102;2022-07-23T20:11:22;8.55;;;7.78;;
30850;SDS011;17567;48.382;9.102;2022-07-23T20:16:23;7.40;;;6.80;;
30850;SDS011;17567;48.382;9.102;2022-07-23T20:21:25;7.72;;;6.97;;
30850;SDS011;17567;48.382;9.102;2022-07-23T20:31:51;7.32;;;6.68;;
30850;SDS011;17567;48.382;9.102;2022-07-23T20:36:54;9.27;;;7.70;;
30850;SDS011;17567;48.382;9.102;2022-07-23T20:41:55;8.90;;;8.00;;
30850;SDS011;17567;48.382;9.102;2022-07-23T20:46:55;11.38;;;9.55;;
30850;SDS011;17567;48.382;9.102;2022-07-23T20:51:56;8.90;;;8.10;;
30850;SDS011;17567;48.382;9.102;2022-07-23T20:56:57;10.57;;;8.43;;
30850;SDS011;17567;48.382;9.102;2022-07-23T21:01:58;10.50;;;8.77;;
30850;SDS011;17567;48.382;9.102;2022-07-23T21:06:59;10.38;;;7.70;;
30850;SDS011;17567;48.382;9.102;2022-07-23T21:12:00;9.95;;;8.20;;
30850;SDS011;17567;48.382;9.102;2022-07-23T21:17:00;9.35;;;7.93;;
30850;SDS011;17567;48.382;9.102;2022-07-23T21:22:01;8.75;;;7.82;;
30850;SDS011;17567;48.382;9.102;2022-07-23T21:27:02;9.30;;;8.40;;
30850;SDS011;17567;48.382;9.102;2022-07-23T21:32:07;10.60;;;8.73;;
30850;SDS011;17567;48.382;9.102;2022-07-23T21:37:09;9.98;;;9.10;;
30850;SDS011;17567;48.382;9.102;2022-07-23T21:42:14;9.65;;;8.75;;
30850;SDS011;17567;48.382;9.102;2022-07-23T21:47:14;11.05;;;8.90;;
30850;SDS011;17567;48.382;9.102;2022-07-23T21:52:15;10.85;;;8.68;;
30850;SDS011;17567;48.382;9.102;2022-07-23T21:57:16;10.65;;;9.65;;
30850;SDS011;17567;48.382;9.102;2022-07-23T22:02:17;9.80;;;9.00;;
30850;SDS011;17567;48.382;9.102;2022-07-23T22:07:19;9.10;;;8.30;;
30850;SDS011;17567;48.382;9.102;2022-07-23T22:12:20;9.77;;;8.90;;
30850;SDS011;17567;48.382;9.102;2022-07-23T22:17:21;10.00;;;9.00;;
30850;SDS011;17567;48.382;9.102;2022-07-23T22:22:22;11.60;;;9.07;;
30850;SDS011;17567;48.382;9.102;2022-07-23T22:27:23;11.48;;;9.30;;
30850;SDS011;17567;48.382;9.102;2022-07-23T22:32:24;10.10;;;9.15;;
30850;SDS011;17567;48.382;9.102;2022-07-23T22:37:25;9.27;;;8.40;;
30850;SDS011;17567;48.382;9.102;2022-07-23T22:42:26;10.25;;;9.27;;
30850;SDS011;17567;48.382;9.102;2022-07-23T22:47:28;11.95;;;9.60;;
30850;SDS011;17567;48.382;9.102;2022-07-23T22:52:29;9.38;;;8.50;;
30850;SDS011;17567;48.382;9.102;2022-07-23T22:57:30;9.80;;;8.95;;
30850;SDS011;17567;48.382;9.102;2022-07-23T23:02:31;9.70;;;8.90;;
30850;SDS011;17567;48.382;9.102;2022-07-23T23:07:32;10.68;;;9.63;;
30850;SDS011;17567;48.382;9.102;2022-07-23T23:12:33;13.93;;;10.17;;
30850;SDS011;17567;48.382;9.102;2022-07-23T23:17:34;11.68;;;10.48;;
30850;SDS011;17567;48.382;9.102;2022-07-23T23:22:36;11.30;;;10.10;;
30850;SDS011;17567;48.382;9.102;2022-07-23T23:27:37;14.15;;;10.73;;
30850;SDS011;17567;48.382;9.102;2022-07-23T23:32:38;13.73;;;11.27;;
30850;SDS011;17567;48.382;9.102;2022-07-23T23:37:40;11.10;;;10.10;;
30850;SDS011;17567;48.382;9.102;2022-07-23T23:42:41;11.20;;;10.13;;
30850;SDS011;17567;48.382;9.102;2022-07-23T23:47:42;10.87;;;9.80;;
30850;SDS011;17567;48.382;9.102;2022-07-23T23:52:43;13.33;;;11.00;;
30850;SDS011;17567;48.382;9.102;2022-07-23T23:57:44;10.83;;;9.83;;
